Terminal Aerodrome Forecast
Issued by NWS Portland, OR

Home | Current Version | Previous Version | Text Only | Print | Product List | Glossary On
Versions: 1 2 3 4 5 6 7 8 9 10 11 12 13 14 15 16 17 18 19 20 21 22 23 24 25 26 27 28 29 30
000
FTUS46 KPQR 030531
TAFAST
TAF
KAST 030531Z 0306/0406 29007KT 6SM BR SCT008
     FM030800 28005KT 4SM BR BKN008
     FM031200 30008KT 3SM BR OVC003
     FM031700 29010KT 6SM BR BKN007=

USA.gov is the U.S. government's official web portal to all federal, state and local government web resources and services.